createdAt,value
2022-10-02T00:00:17.130Z,11.09
2022-10-02T00:03:03.192Z,11.04
2022-10-02T00:05:43.559Z,10.99
2022-10-02T00:08:29.161Z,10.61
2022-10-02T00:11:25.512Z,10.82
2022-10-02T00:14:00.432Z,10.85
2022-10-02T00:16:46.853Z,10.77
2022-10-02T00:19:19.958Z,10.80
2022-10-02T00:22:32.328Z,10.80
2022-10-02T00:25:08.990Z,10.78
2022-10-02T00:28:25.700Z,10.76
2022-10-02T00:31:31.566Z,10.79
2022-10-02T00:34:38.988Z,10.79
2022-10-02T00:37:38.396Z,10.77
2022-10-02T00:40:33.691Z,10.76
2022-10-02T00:43:38.645Z,10.73
2022-10-02T00:46:18.348Z,10.44
2022-10-02T00:49:27.152Z,10.47
2022-10-02T00:52:15.543Z,10.76
2022-10-02T00:55:16.571Z,10.61
2022-10-02T00:58:15.550Z,10.56
2022-10-02T01:00:58.535Z,10.63
2022-10-02T01:03:58.251Z,10.61
2022-10-02T01:06:30.459Z,10.47
2022-10-02T01:08:59.018Z,10.61
2022-10-02T01:11:27.855Z,10.45
2022-10-02T01:13:56.070Z,10.25
2022-10-02T01:16:24.306Z,10.48
2022-10-02T01:18:54.657Z,10.42
2022-10-02T01:21:51.775Z,10.43
2022-10-02T01:24:33.882Z,10.09
2022-10-02T01:27:02.010Z,10.33
2022-10-02T01:29:29.889Z,10.09
2022-10-02T01:31:57.878Z,10.31
2022-10-02T01:34:27.095Z,10.27
2022-10-02T01:36:55.075Z,10.12
2022-10-02T01:39:23.479Z,10.24
2022-10-02T01:41:51.445Z,10.20
2022-10-02T01:44:19.284Z,10.21
2022-10-02T01:47:12.579Z,10.21
2022-10-02T01:49:53.978Z,10.25
2022-10-02T01:52:54.275Z,10.26
2022-10-02T01:55:52.890Z,10.25
2022-10-02T01:59:05.571Z,10.17
2022-10-02T02:01:50.794Z,10.13
2022-10-02T02:04:29.457Z,10.10
2022-10-02T02:07:14.265Z,10.07
2022-10-02T02:10:21.778Z,10.05
2022-10-02T02:13:11.759Z,10.00
2022-10-02T02:16:06.789Z,10.03
2022-10-02T02:18:39.922Z,9.84
2022-10-02T02:21:21.993Z,10.03
2022-10-02T02:23:53.053Z,9.76
2022-10-02T02:26:22.414Z,10.03
2022-10-02T02:28:57.494Z,9.71
2022-10-02T02:31:35.494Z,10.02
2022-10-02T02:34:12.738Z,9.78
2022-10-02T02:36:45.578Z,10.04
2022-10-02T02:39:24.731Z,9.95
2022-10-02T02:41:59.649Z,9.83
2022-10-02T02:44:42.848Z,10.06
2022-10-02T02:47:19.958Z,10.02
2022-10-02T02:49:58.819Z,9.85
2022-10-02T02:53:10.588Z,10.00
2022-10-02T02:55:48.653Z,9.99
2022-10-02T02:59:06.264Z,9.98
2022-10-02T03:01:34.349Z,10.00
2022-10-02T03:04:02.414Z,9.99
2022-10-02T03:06:50.097Z,9.95
2022-10-02T03:09:22.362Z,9.97
2022-10-02T03:12:40.778Z,10.00
2022-10-02T03:15:51.767Z,9.97
2022-10-02T03:18:28.751Z,10.03
2022-10-02T03:21:14.925Z,10.04
2022-10-02T03:24:09.463Z,9.97
2022-10-02T03:27:01.492Z,9.87
2022-10-02T03:29:37.278Z,9.82
2022-10-02T03:32:07.041Z,9.96
2022-10-02T03:34:36.520Z,9.68
2022-10-02T03:37:05.399Z,10.11
2022-10-02T03:39:33.447Z,10.15
2022-10-02T03:42:01.756Z,9.85
2022-10-02T03:44:30.107Z,10.18
2022-10-02T03:46:58.056Z,9.89
2022-10-02T03:49:25.903Z,10.11
2022-10-02T03:51:56.898Z,10.16
2022-10-02T03:54:38.598Z,10.17
2022-10-02T03:57:12.554Z,10.15
2022-10-02T04:00:12.947Z,10.18
2022-10-02T04:03:09.572Z,10.14
2022-10-02T04:05:50.821Z,10.18
2022-10-02T04:08:26.862Z,9.93
2022-10-02T04:11:13.825Z,10.18
2022-10-02T04:13:52.218Z,9.77
2022-10-02T04:16:47.348Z,10.21
2022-10-02T04:19:40.592Z,10.22
2022-10-02T04:22:27.390Z,10.22
2022-10-02T04:25:21.542Z,10.22
2022-10-02T04:28:02.682Z,10.19
2022-10-02T04:30:30.888Z,10.21
2022-10-02T04:33:17.399Z,9.95
2022-10-02T04:36:07.309Z,10.16
2022-10-02T04:39:28.657Z,10.12
2022-10-02T04:42:31.988Z,10.20
2022-10-02T04:45:29.906Z,9.95
2022-10-02T04:48:19.541Z,10.20
2022-10-02T04:51:03.705Z,10.11
2022-10-02T04:53:50.467Z,10.19
2022-10-02T04:57:08.660Z,10.18
2022-10-02T05:00:14.543Z,10.19
2022-10-02T05:02:57.047Z,10.19
2022-10-02T05:06:19.409Z,10.23
2022-10-02T05:09:21.824Z,10.13
2022-10-02T05:12:15.664Z,10.18
2022-10-02T05:15:22.628Z,9.77
2022-10-02T05:18:02.242Z,10.24
2022-10-02T05:21:20.832Z,10.20
2022-10-02T05:23:58.264Z,10.13
2022-10-02T05:26:50.584Z,10.02
2022-10-02T05:29:51.520Z,9.98
2022-10-02T05:32:31.292Z,9.99
2022-10-02T05:35:07.752Z,10.14
2022-10-02T05:37:47.277Z,10.24
2022-10-02T05:41:26.327Z,10.31
2022-10-02T05:44:24.205Z,10.36
2022-10-02T05:47:24.178Z,10.39
2022-10-02T05:49:58.558Z,10.43
2022-10-02T05:52:43.443Z,10.17
2022-10-02T05:55:30.491Z,10.60
2022-10-02T05:58:27.752Z,10.40
2022-10-02T06:01:22.160Z,10.69
2022-10-02T06:04:20.157Z,10.60
2022-10-02T06:07:01.299Z,10.77
2022-10-02T06:09:36.109Z,10.82
2022-10-02T06:12:12.528Z,10.88
2022-10-02T06:15:26.783Z,10.95
2022-10-02T06:18:10.555Z,10.88
2022-10-02T06:20:47.551Z,10.74
2022-10-02T06:23:26.300Z,11.00
2022-10-02T06:26:11.297Z,10.80
2022-10-02T06:28:56.684Z,10.88
2022-10-02T06:32:13.384Z,10.95
2022-10-02T06:34:44.635Z,10.93
2022-10-02T06:37:34.595Z,10.99
2022-10-02T06:40:31.094Z,11.04
2022-10-02T06:43:26.657Z,11.05
2022-10-02T06:46:17.932Z,11.10
2022-10-02T06:49:09.986Z,11.08
2022-10-02T06:52:39.470Z,11.09
2022-10-02T06:55:37.170Z,11.01
2022-10-02T06:58:30.345Z,11.06
2022-10-02T07:01:16.167Z,11.09
2022-10-02T07:04:29.888Z,11.04
2022-10-02T07:07:32.571Z,11.08
2022-10-02T07:10:30.213Z,11.28
2022-10-02T07:13:35.997Z,11.49
2022-10-02T07:16:39.056Z,11.63
2022-10-02T07:19:24.028Z,11.77
2022-10-02T07:22:32.326Z,11.58
2022-10-02T07:25:38.079Z,11.67
2022-10-02T07:28:46.119Z,12.12
2022-10-02T07:31:54.249Z,12.13
2022-10-02T07:34:42.378Z,12.16
2022-10-02T07:37:43.314Z,12.23
2022-10-02T07:40:50.759Z,12.20
2022-10-02T07:43:53.006Z,12.09
2022-10-02T07:46:38.970Z,11.92
2022-10-02T07:49:44.407Z,11.86
2022-10-02T07:52:33.959Z,11.54
2022-10-02T07:55:44.561Z,11.67
2022-10-02T07:58:22.885Z,11.59
2022-10-02T08:01:01.260Z,11.08
2022-10-02T08:03:52.743Z,11.20
2022-10-02T08:06:21.056Z,11.24
2022-10-02T08:09:17.976Z,11.57
2022-10-02T08:11:56.309Z,11.75
2022-10-02T08:14:41.795Z,11.96
2022-10-02T08:17:50.508Z,11.80
2022-10-02T08:20:46.963Z,11.97
2022-10-02T08:23:28.370Z,11.98
2022-10-02T08:26:35.562Z,12.07
2022-10-02T08:29:34.948Z,12.13
2022-10-02T08:32:03.058Z,12.38
2022-10-02T08:34:32.577Z,12.35
2022-10-02T08:37:29.667Z,12.21
2022-10-02T08:40:40.049Z,12.26
2022-10-02T08:43:46.403Z,12.15
2022-10-02T08:47:03.213Z,11.82
2022-10-02T08:50:04.064Z,11.87
2022-10-02T08:52:50.684Z,12.03
2022-10-02T08:55:54.564Z,12.04
2022-10-02T08:59:21.271Z,12.61
2022-10-02T09:02:27.825Z,12.15
2022-10-02T09:05:19.504Z,12.28
2022-10-02T09:08:26.795Z,12.32
2022-10-02T09:11:37.314Z,12.46
2022-10-02T09:14:48.528Z,12.52
2022-10-02T09:17:37.723Z,13.11
2022-10-02T09:20:48.136Z,13.01
2022-10-02T09:23:46.517Z,13.26
2022-10-02T09:26:44.237Z,13.30
2022-10-02T09:29:31.051Z,13.46
2022-10-02T09:32:30.285Z,13.52
2022-10-02T09:35:43.049Z,13.72
2022-10-02T09:38:39.210Z,13.55
2022-10-02T09:41:41.638Z,13.71
2022-10-02T09:45:01.419Z,14.09
2022-10-02T09:47:54.203Z,14.12
2022-10-02T09:51:18.688Z,14.23
2022-10-02T09:54:21.847Z,13.84
2022-10-02T09:57:31.967Z,13.83
2022-10-02T10:00:34.611Z,13.53
2022-10-02T10:03:22.875Z,13.23
2022-10-02T10:06:17.910Z,13.49
2022-10-02T10:09:09.830Z,13.37
2022-10-02T10:11:58.585Z,13.31
2022-10-02T10:14:36.144Z,13.53
2022-10-02T10:17:32.093Z,13.48
2022-10-02T10:20:27.669Z,13.66
2022-10-02T10:23:26.512Z,13.66
2022-10-02T10:26:26.583Z,13.81
2022-10-02T10:29:32.037Z,13.86
2022-10-02T10:33:08.736Z,13.53
2022-10-02T10:35:47.330Z,13.21
2022-10-02T10:38:49.816Z,13.17
2022-10-02T10:42:07.334Z,13.19
2022-10-02T10:45:00.524Z,13.50
2022-10-02T10:47:55.722Z,13.79
2022-10-02T10:51:15.297Z,14.22
2022-10-02T10:54:04.925Z,14.07
2022-10-02T10:56:51.335Z,13.89
2022-10-02T11:00:01.748Z,13.66
2022-10-02T11:03:15.745Z,13.74
2022-10-02T11:06:18.051Z,13.62
2022-10-02T11:09:29.300Z,13.24
2022-10-02T11:12:24.850Z,13.69
2022-10-02T11:15:43.867Z,13.68
2022-10-02T11:18:40.478Z,13.49
2022-10-02T11:22:14.987Z,13.58
2022-10-02T11:25:21.050Z,13.78
2022-10-02T11:28:22.361Z,14.02
2022-10-02T11:31:30.497Z,14.07
2022-10-02T11:34:20.683Z,14.07
2022-10-02T11:37:13.487Z,13.62
2022-10-02T11:40:13.094Z,13.52
2022-10-02T11:42:56.188Z,13.38
2022-10-02T11:45:43.937Z,13.48
2022-10-02T11:48:57.475Z,13.72
2022-10-02T11:52:06.244Z,13.88
2022-10-02T11:55:22.365Z,13.69
2022-10-02T11:58:09.673Z,13.48
2022-10-02T12:01:32.302Z,13.10
2022-10-02T12:04:54.888Z,13.17
2022-10-02T12:07:28.882Z,13.46
2022-10-02T12:10:50.126Z,13.91
2022-10-02T12:13:49.556Z,14.20
2022-10-02T12:16:43.864Z,14.46
2022-10-02T12:19:25.272Z,14.30
2022-10-02T12:23:04.645Z,14.22
2022-10-02T12:26:13.617Z,13.73
2022-10-02T12:29:12.897Z,13.99
2022-10-02T12:32:09.972Z,13.78
2022-10-02T12:35:24.384Z,14.19
2022-10-02T12:38:40.732Z,13.99
2022-10-02T12:42:05.167Z,13.60
2022-10-02T12:45:19.300Z,13.11
2022-10-02T12:48:17.775Z,12.58
2022-10-02T12:51:22.544Z,11.92
2022-10-02T12:54:40.459Z,11.69
2022-10-02T12:57:52.953Z,11.03
2022-10-02T13:00:42.101Z,10.63
2022-10-02T13:03:55.446Z,10.44
2022-10-02T13:06:46.749Z,11.10
2022-10-02T13:09:17.409Z,11.07
2022-10-02T13:12:25.386Z,11.25
2022-10-02T13:15:06.598Z,11.40
2022-10-02T13:17:49.343Z,11.86
2022-10-02T13:20:39.084Z,12.22
2022-10-02T13:23:41.703Z,12.29
2022-10-02T13:26:52.429Z,12.60
2022-10-02T13:29:43.230Z,12.83
2022-10-02T13:32:36.827Z,12.82
2022-10-02T13:35:20.034Z,12.90
2022-10-02T13:38:19.157Z,12.75
2022-10-02T13:41:05.265Z,12.67
2022-10-02T13:43:52.516Z,12.63
2022-10-02T13:46:47.159Z,12.88
2022-10-02T13:49:43.202Z,12.99
2022-10-02T13:52:23.200Z,13.19
2022-10-02T13:55:13.450Z,13.26
2022-10-02T13:58:29.137Z,13.32
2022-10-02T14:01:24.863Z,13.14
2022-10-02T14:04:17.989Z,13.08
2022-10-02T14:07:31.550Z,13.06
2022-10-02T14:10:08.309Z,13.17
2022-10-02T14:13:26.390Z,13.30
2022-10-02T14:16:45.254Z,13.26
2022-10-02T14:19:58.484Z,13.31
2022-10-02T14:23:00.011Z,13.21
2022-10-02T14:26:12.276Z,13.72
2022-10-02T14:29:08.946Z,14.20
2022-10-02T14:32:04.879Z,14.04
2022-10-02T14:34:47.510Z,13.77
2022-10-02T14:37:46.275Z,13.82
2022-10-02T14:40:18.522Z,13.82
2022-10-02T14:43:23.224Z,13.76
2022-10-02T14:46:19.366Z,13.58
2022-10-02T14:49:21.704Z,13.52
2022-10-02T14:52:31.550Z,13.51
2022-10-02T14:55:44.618Z,13.11
2022-10-02T14:58:29.548Z,13.11
2022-10-02T15:01:23.720Z,12.75
2022-10-02T15:03:51.808Z,12.82
2022-10-02T15:06:47.563Z,12.71
2022-10-02T15:09:33.887Z,12.66
2022-10-02T15:12:05.870Z,12.38
2022-10-02T15:15:18.835Z,12.55
2022-10-02T15:18:11.110Z,12.51
2022-10-02T15:21:05.821Z,12.56
2022-10-02T15:23:33.752Z,12.55
2022-10-02T15:26:18.059Z,12.46
2022-10-02T15:29:00.417Z,12.50
2022-10-02T15:31:44.497Z,12.42
2022-10-02T15:34:56.961Z,12.38
2022-10-02T15:38:13.693Z,12.13
2022-10-02T15:41:29.775Z,12.10
2022-10-02T15:44:28.798Z,12.29
2022-10-02T15:47:30.681Z,12.27
2022-10-02T15:50:24.655Z,12.26
2022-10-02T15:53:37.823Z,12.17
2022-10-02T15:56:23.521Z,12.18
2022-10-02T15:59:21.113Z,11.88
2022-10-02T16:02:07.215Z,11.92
2022-10-02T16:04:46.955Z,12.04
2022-10-02T16:07:54.277Z,11.91
2022-10-02T16:10:33.268Z,11.65
2022-10-02T16:13:41.400Z,11.81
2022-10-02T16:16:39.229Z,11.74
2022-10-02T16:19:33.962Z,11.68
2022-10-02T16:22:18.095Z,10.77
2022-10-02T16:25:06.708Z,11.55
2022-10-02T16:27:56.840Z,11.43
2022-10-02T16:30:27.344Z,11.42
2022-10-02T16:33:32.342Z,11.44
2022-10-02T16:36:19.304Z,11.45
2022-10-02T16:39:36.919Z,11.47
2022-10-02T16:42:46.114Z,11.38
2022-10-02T16:45:50.758Z,11.29
2022-10-02T16:49:11.181Z,11.20
2022-10-02T16:52:18.829Z,11.03
2022-10-02T16:55:06.555Z,10.98
2022-10-02T16:57:43.230Z,10.76
2022-10-02T17:00:32.885Z,10.88
2022-10-02T17:03:41.982Z,10.82
2022-10-02T17:06:29.802Z,10.73
2022-10-02T17:09:15.000Z,10.67
2022-10-02T17:12:35.028Z,10.58
2022-10-02T17:15:48.331Z,10.53
2022-10-02T17:18:34.812Z,10.44
2022-10-02T17:21:24.562Z,10.26
2022-10-02T17:24:15.097Z,10.38
2022-10-02T17:27:04.575Z,10.33
2022-10-02T17:30:15.344Z,10.29
2022-10-02T17:32:46.777Z,10.30
2022-10-02T17:35:37.459Z,10.24
2022-10-02T17:38:36.770Z,10.25
2022-10-02T17:41:30.435Z,10.18
2022-10-02T17:44:23.694Z,9.94
2022-10-02T17:47:47.599Z,10.12
2022-10-02T17:50:50.203Z,10.05
2022-10-02T17:54:17.998Z,9.81
2022-10-02T17:57:02.614Z,9.92
2022-10-02T18:00:21.499Z,9.98
2022-10-02T18:02:52.926Z,9.75
2022-10-02T18:05:54.979Z,10.04
2022-10-02T18:09:23.693Z,10.04
2022-10-02T18:12:31.730Z,10.03
2022-10-02T18:15:36.752Z,9.99
2022-10-02T18:18:24.551Z,10.04
2022-10-02T18:21:11.895Z,10.04
2022-10-02T18:24:18.611Z,10.08
2022-10-02T18:27:32.572Z,10.00
2022-10-02T18:30:31.637Z,9.94
2022-10-02T18:33:31.911Z,9.82
2022-10-02T18:36:32.026Z,9.93
2022-10-02T18:39:17.787Z,9.93
2022-10-02T18:41:57.943Z,9.94
2022-10-02T18:44:56.541Z,9.74
2022-10-02T18:47:51.227Z,9.88
2022-10-02T18:50:39.821Z,9.83
2022-10-02T18:53:30.854Z,9.81
2022-10-02T18:56:12.038Z,9.59
2022-10-02T18:59:27.095Z,9.69
2022-10-02T19:02:02.453Z,9.69
2022-10-02T19:05:09.675Z,9.65
2022-10-02T19:07:52.714Z,9.61
2022-10-02T19:10:31.935Z,9.57
2022-10-02T19:13:30.280Z,9.51
2022-10-02T19:16:16.431Z,9.56
2022-10-02T19:18:44.643Z,9.54
2022-10-02T19:21:16.591Z,9.48
2022-10-02T19:24:14.037Z,9.19
2022-10-02T19:26:52.278Z,9.48
2022-10-02T19:29:32.189Z,9.49
2022-10-02T19:32:18.631Z,9.49
2022-10-02T19:34:57.671Z,9.46
2022-10-02T19:37:27.167Z,9.49
2022-10-02T19:40:03.006Z,9.50
2022-10-02T19:42:45.084Z,9.55
2022-10-02T19:45:29.117Z,9.47
2022-10-02T19:48:10.954Z,9.59
2022-10-02T19:50:55.670Z,9.74
2022-10-02T19:53:29.940Z,9.76
2022-10-02T19:56:02.440Z,9.75
2022-10-02T19:58:47.768Z,9.76
2022-10-02T20:01:24.210Z,9.70
2022-10-02T20:04:01.677Z,9.52
2022-10-02T20:06:35.276Z,9.64
2022-10-02T20:09:25.307Z,9.67
2022-10-02T20:12:05.060Z,9.83
2022-10-02T20:14:50.612Z,9.81
2022-10-02T20:17:19.496Z,9.78
2022-10-02T20:19:57.876Z,9.90
2022-10-02T20:22:43.949Z,9.90
2022-10-02T20:25:30.146Z,9.90
2022-10-02T20:28:18.558Z,9.92
2022-10-02T20:31:01.269Z,9.92
2022-10-02T20:33:50.749Z,9.87
2022-10-02T20:36:41.212Z,9.83
2022-10-02T20:39:16.354Z,9.64
2022-10-02T20:42:04.608Z,9.65
2022-10-02T20:44:37.033Z,9.89
2022-10-02T20:47:44.741Z,9.91
2022-10-02T20:50:26.786Z,9.80
2022-10-02T20:53:34.383Z,10.02
2022-10-02T20:56:41.368Z,10.13
2022-10-02T20:59:56.765Z,10.12
2022-10-02T21:03:25.986Z,10.13
2022-10-02T21:06:38.074Z,10.14
2022-10-02T21:09:30.765Z,9.89
2022-10-02T21:12:23.549Z,10.14
2022-10-02T21:15:11.669Z,9.71
2022-10-02T21:18:19.770Z,10.13
2022-10-02T21:21:21.717Z,10.17
2022-10-02T21:24:01.980Z,10.17
2022-10-02T21:26:55.817Z,10.17
2022-10-02T21:30:01.087Z,9.70
2022-10-02T21:33:11.805Z,10.11
2022-10-02T21:36:00.633Z,10.13
2022-10-02T21:38:50.667Z,10.08
2022-10-02T21:41:58.737Z,10.09
2022-10-02T21:44:49.187Z,10.05
2022-10-02T21:47:45.382Z,9.77
2022-10-02T21:50:40.944Z,10.00
2022-10-02T21:53:42.055Z,9.98
2022-10-02T21:56:27.814Z,9.96
2022-10-02T21:59:02.050Z,9.92
2022-10-02T22:02:17.875Z,9.93
2022-10-02T22:05:45.643Z,9.93
2022-10-02T22:08:35.434Z,9.93
2022-10-02T22:11:24.904Z,9.96
2022-10-02T22:14:05.492Z,9.76
2022-10-02T22:16:57.804Z,10.08
2022-10-02T22:20:20.756Z,10.11
2022-10-02T22:23:20.031Z,10.18
2022-10-02T22:26:36.709Z,10.14
2022-10-02T22:29:22.604Z,10.01
2022-10-02T22:32:28.211Z,10.23
2022-10-02T22:35:21.078Z,10.25
2022-10-02T22:38:16.899Z,10.20
2022-10-02T22:41:21.802Z,10.10
2022-10-02T22:44:00.042Z,9.79
2022-10-02T22:46:47.696Z,9.96
2022-10-02T22:49:36.234Z,9.97
2022-10-02T22:52:34.260Z,9.94
2022-10-02T22:55:30.075Z,9.95
2022-10-02T22:58:20.352Z,9.71
2022-10-02T23:01:39.928Z,9.91
2022-10-02T23:04:37.648Z,9.89
2022-10-02T23:07:39.474Z,9.88
2022-10-02T23:10:20.649Z,9.89
2022-10-02T23:13:15.513Z,9.88
2022-10-02T23:16:08.652Z,9.62
2022-10-02T23:18:54.489Z,9.87
2022-10-02T23:21:59.539Z,9.83
2022-10-02T23:25:42.960Z,9.83
2022-10-02T23:28:34.265Z,9.82
2022-10-02T23:31:31.688Z,9.80
2022-10-02T23:34:19.979Z,9.79
2022-10-02T23:37:01.297Z,9.78
2022-10-02T23:40:42.998Z,9.78
2022-10-02T23:43:28.611Z,9.80
2022-10-02T23:46:15.097Z,9.75
2022-10-02T23:48:45.690Z,9.83
2022-10-02T23:52:15.603Z,9.85
2022-10-02T23:55:04.000Z,9.86
2022-10-02T23:58:08.321Z,9.87
